createdAt,value
2018-06-15T00:03:56.561Z,80.45
2018-06-15T00:08:35.206Z,79.47
2018-06-15T00:13:13.773Z,81.63
2018-06-15T00:17:52.300Z,82.69
2018-06-15T00:22:30.760Z,83.16
2018-06-15T00:27:12.902Z,81.23
2018-06-15T00:31:51.392Z,82.01
2018-06-15T00:36:29.941Z,81.04
2018-06-15T00:41:08.861Z,82.17
2018-06-15T00:45:47.806Z,82.52
2018-06-15T00:50:26.330Z,81.29
2018-06-15T00:55:09.470Z,80.82
2018-06-15T00:59:48.103Z,83.05
2018-06-15T01:04:30.150Z,83.47
2018-06-15T01:09:09.366Z,83.51
2018-06-15T01:13:47.863Z,82.52
2018-06-15T01:18:27.578Z,82.58
2018-06-15T01:23:06.092Z,83.31
2018-06-15T01:27:44.517Z,80.87
2018-06-15T01:32:23.090Z,81.11
2018-06-15T01:37:02.619Z,79.49
2018-06-15T01:41:41.161Z,81.56
2018-06-15T01:46:23.645Z,81.95
2018-06-15T01:51:02.114Z,80.76
2018-06-15T01:55:44.166Z,80.67
2018-06-15T02:00:22.712Z,83.12
2018-06-15T02:05:02.158Z,82.35
2018-06-15T02:09:40.585Z,81.84
2018-06-15T02:14:23.696Z,80.37
2018-06-15T02:19:02.389Z,81.30
2018-06-15T02:23:40.913Z,82.78
2018-06-15T02:28:19.534Z,82.38
2018-06-15T02:32:58.171Z,80.52
2018-06-15T02:37:37.652Z,83.16
2018-06-15T02:42:16.290Z,84.36
2018-06-15T02:46:54.978Z,84.66
2018-06-15T02:51:33.618Z,83.47
2018-06-15T02:56:13.265Z,84.96
2018-06-15T03:00:51.745Z,85.95
2018-06-15T03:05:31.400Z,83.71
2018-06-15T03:10:09.985Z,84.16
2018-06-15T03:14:49.716Z,83.74
2018-06-15T03:19:28.501Z,82.94
2018-06-15T03:24:10.911Z,84.03
2018-06-15T03:28:49.488Z,84.27
2018-06-15T03:33:28.137Z,83.40
2018-06-15T03:38:06.706Z,82.80
2018-06-15T03:42:45.155Z,84.17
2018-06-15T03:47:23.800Z,84.12
2018-06-15T03:52:02.331Z,84.54
2018-06-15T03:56:41.741Z,83.13
2018-06-15T04:01:20.226Z,84.00
2018-06-15T04:05:59.025Z,84.18
2018-06-15T04:10:37.657Z,84.60
2018-06-15T04:15:16.305Z,83.60
2018-06-15T04:19:54.817Z,83.52
2018-06-15T04:24:34.554Z,83.24
2018-06-15T04:29:13.143Z,83.44
2018-06-15T04:33:57.221Z,82.30
2018-06-15T04:38:35.817Z,78.86
2018-06-15T04:43:14.549Z,77.81
2018-06-15T04:47:54.449Z,77.92
2018-06-15T04:52:32.973Z,78.72
2018-06-15T04:57:11.765Z,79.26
2018-06-15T05:01:50.445Z,80.10
2018-06-15T05:06:29.090Z,81.36
2018-06-15T05:11:07.718Z,79.91
2018-06-15T05:15:49.533Z,78.84
2018-06-15T05:20:28.101Z,78.72
2018-06-15T05:25:07.803Z,77.96
2018-06-15T05:29:46.273Z,76.32
2018-06-15T05:34:27.522Z,78.97
2018-06-15T05:39:10.500Z,70.84
2018-06-15T05:43:52.329Z,71.51
2018-06-15T05:48:30.902Z,73.86
2018-06-15T05:53:09.540Z,71.79
2018-06-15T05:57:48.043Z,73.53
2018-06-15T06:08:01.080Z,71.31
2018-06-15T06:12:42.495Z,67.89
2018-06-15T06:17:24.397Z,68.75
2018-06-15T06:22:03.999Z,64.95
2018-06-15T06:26:43.741Z,62.28
2018-06-15T06:31:22.401Z,61.71
2018-06-15T06:36:01.051Z,71.83
2018-06-15T06:40:39.476Z,66.79
2018-06-15T06:45:21.874Z,65.27
2018-06-15T06:50:00.400Z,67.28
2018-06-15T06:54:39.614Z,71.07
2018-06-15T06:59:18.574Z,68.89
2018-06-15T07:04:00.463Z,62.17
2018-06-15T07:08:39.333Z,63.48
2018-06-15T07:13:18.502Z,64.41
2018-06-15T07:17:57.551Z,61.12
2018-06-15T07:22:36.190Z,61.70
2018-06-15T07:27:15.059Z,55.53
2018-06-15T07:31:53.827Z,55.35
2018-06-15T07:36:36.098Z,62.75
2018-06-15T07:41:14.650Z,55.79
2018-06-15T07:45:59.950Z,58.19
2018-06-15T07:50:38.933Z,60.59
2018-06-15T07:55:17.559Z,58.58
2018-06-15T07:59:56.137Z,52.95
2018-06-15T08:04:41.433Z,53.81
2018-06-15T08:09:19.923Z,56.80
2018-06-15T08:14:01.903Z,58.15
2018-06-15T08:18:40.601Z,49.62
2018-06-15T08:23:19.123Z,52.61
2018-06-15T08:27:57.721Z,48.84
2018-06-15T08:32:36.854Z,56.33
2018-06-15T08:37:15.471Z,53.09
2018-06-15T08:41:53.785Z,54.40
2018-06-15T08:46:35.781Z,55.59
2018-06-15T08:51:14.347Z,54.70
2018-06-15T08:55:53.199Z,55.46
2018-06-15T09:00:31.785Z,54.30
2018-06-15T09:05:14.439Z,54.00
2018-06-15T09:09:52.848Z,46.57
2018-06-15T09:14:32.369Z,44.75
2018-06-15T09:19:10.978Z,43.67
2018-06-15T09:23:53.399Z,45.39
2018-06-15T09:28:31.908Z,49.12
2018-06-15T09:33:11.718Z,46.15
2018-06-15T09:37:50.306Z,47.21
2018-06-15T09:42:29.746Z,41.99
2018-06-15T09:47:13.390Z,42.78
2018-06-15T09:51:52.099Z,44.19
2018-06-15T09:56:35.240Z,47.05
2018-06-15T10:01:13.899Z,45.47
2018-06-15T10:05:53.832Z,47.50
2018-06-15T10:10:32.371Z,45.87
2018-06-15T10:15:11.258Z,46.85
2018-06-15T10:19:49.837Z,46.78
2018-06-15T10:24:31.891Z,47.05
2018-06-15T10:29:10.502Z,46.68
2018-06-15T10:33:54.266Z,46.40
2018-06-15T10:38:32.986Z,47.73
2018-06-15T10:43:11.993Z,45.84
2018-06-15T10:47:50.384Z,46.95
2018-06-15T10:52:29.110Z,47.25
2018-06-15T10:57:07.911Z,47.37
2018-06-15T11:01:46.395Z,46.28
2018-06-15T11:06:25.233Z,47.14
2018-06-15T11:11:03.781Z,48.88
2018-06-15T11:15:43.055Z,48.60
2018-06-15T11:20:21.636Z,46.64
2018-06-15T11:25:04.078Z,43.15
2018-06-15T11:29:42.721Z,46.46
2018-06-15T11:34:22.290Z,49.17
2018-06-15T11:39:00.917Z,48.84
2018-06-15T11:43:39.625Z,52.02
2018-06-15T11:48:18.126Z,53.19
2018-06-15T11:53:00.173Z,53.26
2018-06-15T11:57:38.810Z,53.91
2018-06-15T12:02:17.447Z,55.18
2018-06-15T12:06:56.039Z,55.79
2018-06-15T12:11:34.701Z,56.46
2018-06-15T12:16:13.461Z,56.53
2018-06-15T12:20:52.109Z,57.49
2018-06-15T12:25:31.818Z,58.06
2018-06-15T12:30:10.479Z,57.52
2018-06-15T12:34:49.964Z,57.75
2018-06-15T12:39:28.563Z,58.06
2018-06-15T12:44:12.577Z,58.73
2018-06-15T12:48:51.200Z,59.17
2018-06-15T12:53:38.667Z,58.97
2018-06-15T12:58:17.249Z,61.08
2018-06-15T13:02:58.969Z,61.67
2018-06-15T13:07:37.488Z,62.26
2018-06-15T13:12:16.314Z,62.52
2018-06-15T13:16:54.860Z,62.22
2018-06-15T13:21:35.311Z,62.25
2018-06-15T13:26:17.265Z,62.43
2018-06-15T13:30:55.920Z,64.05
2018-06-15T13:35:37.678Z,64.04
2018-06-15T13:40:16.305Z,64.58
2018-06-15T13:45:00.739Z,63.06
2018-06-15T13:49:39.266Z,64.28
2018-06-15T13:54:22.970Z,64.94
2018-06-15T13:59:01.573Z,64.90
2018-06-15T14:03:43.317Z,63.68
2018-06-15T14:08:22.980Z,65.02
2018-06-15T14:13:02.747Z,63.99
2018-06-15T14:17:41.339Z,64.52
2018-06-15T14:22:25.137Z,64.19
2018-06-15T14:27:03.776Z,64.06
2018-06-15T14:31:42.359Z,63.54
2018-06-15T14:36:22.108Z,64.58
2018-06-15T14:41:00.793Z,66.21
2018-06-15T14:47:12.530Z,65.17
2018-06-15T14:51:51.212Z,66.06
2018-06-15T14:56:29.868Z,64.89
2018-06-15T15:01:08.517Z,66.05
2018-06-15T15:05:47.249Z,66.37
2018-06-15T15:10:25.919Z,66.85
2018-06-15T15:15:05.548Z,68.02
2018-06-15T15:19:44.158Z,67.69
2018-06-15T15:24:25.945Z,69.42
2018-06-15T15:29:05.330Z,69.09
2018-06-15T15:33:45.111Z,68.93
2018-06-15T15:38:23.705Z,68.62
2018-06-15T15:43:05.886Z,68.83
2018-06-15T15:47:44.526Z,69.40
2018-06-15T15:52:27.185Z,68.59
2018-06-15T15:57:05.831Z,68.37
2018-06-15T16:01:44.634Z,69.22
2018-06-15T16:06:23.255Z,68.73
2018-06-15T16:11:01.929Z,68.43
2018-06-15T16:15:41.473Z,68.61
2018-06-15T16:20:20.094Z,68.95
2018-06-15T16:24:59.687Z,68.25
2018-06-15T16:29:38.258Z,69.75
2018-06-15T16:34:17.894Z,69.37
2018-06-15T16:38:56.391Z,69.04
2018-06-15T16:43:40.247Z,68.76
2018-06-15T16:48:18.883Z,69.83
2018-06-15T16:53:01.385Z,70.75
2018-06-15T16:57:39.998Z,70.65
2018-06-15T17:02:22.270Z,70.56
2018-06-15T17:07:00.792Z,70.54
2018-06-15T17:11:39.495Z,70.92
2018-06-15T17:16:18.178Z,71.71
2018-06-15T17:20:56.729Z,72.97
2018-06-15T17:25:38.399Z,73.41
2018-06-15T17:35:17.251Z,73.90
2018-06-15T17:40:12.814Z,73.26
2018-06-15T17:50:56.263Z,72.26
2018-06-15T17:55:45.837Z,71.71
2018-06-15T18:00:24.518Z,72.88
2018-06-15T18:10:32.344Z,73.66
2018-06-15T18:15:11.903Z,73.72
2018-06-15T18:19:51.123Z,74.52
2018-06-15T18:24:34.618Z,74.22
2018-06-15T18:29:13.180Z,73.94
2018-06-15T18:33:53.031Z,74.60
2018-06-15T18:38:32.667Z,74.88
2018-06-15T18:43:19.507Z,73.93
2018-06-15T18:47:58.808Z,75.05
2018-06-15T18:52:40.786Z,75.97
2018-06-15T18:57:19.388Z,76.16
2018-06-15T19:02:01.704Z,75.01
2018-06-15T19:06:40.339Z,76.18
2018-06-15T19:11:19.677Z,76.00
2018-06-15T19:15:58.205Z,74.71
2018-06-15T19:20:36.773Z,74.22
2018-06-15T19:25:15.596Z,75.10
2018-06-15T19:29:54.566Z,74.34
2018-06-15T19:34:37.187Z,76.73
2018-06-15T19:39:15.755Z,77.12
2018-06-15T19:43:57.570Z,76.17
2018-06-15T19:48:36.066Z,74.70
2018-06-15T19:53:14.945Z,74.70
2018-06-15T19:57:53.447Z,75.22
2018-06-15T20:02:32.215Z,74.96
2018-06-15T20:07:17.381Z,76.27
2018-06-15T20:12:02.280Z,75.64
2018-06-15T20:16:45.342Z,75.78
2018-06-15T20:21:25.070Z,77.21
2018-06-15T20:26:03.905Z,76.27
2018-06-15T20:30:42.476Z,76.02
2018-06-15T20:35:24.914Z,75.19
2018-06-15T20:40:03.487Z,76.32
2018-06-15T20:44:45.335Z,75.69
2018-06-15T20:49:23.803Z,75.32
2018-06-15T20:54:13.852Z,75.56
2018-06-15T20:58:52.254Z,76.41
2018-06-15T21:03:31.787Z,76.85
2018-06-15T21:08:10.439Z,77.51
2018-06-15T21:12:49.897Z,77.49
2018-06-15T21:17:28.418Z,76.89
2018-06-15T21:22:07.235Z,76.87
2018-06-15T21:26:45.762Z,80.02
2018-06-15T21:31:24.334Z,78.83
2018-06-15T21:36:02.906Z,78.36
2018-06-15T21:40:41.552Z,78.56
2018-06-15T21:45:20.146Z,78.90
2018-06-15T21:49:58.623Z,78.99
2018-06-15T21:54:40.293Z,78.75
2018-06-15T21:59:18.779Z,79.40
2018-06-15T22:04:00.756Z,79.00
2018-06-15T22:08:39.178Z,78.96
2018-06-15T22:13:20.805Z,78.97
2018-06-15T22:17:59.310Z,80.39
2018-06-15T22:22:42.411Z,80.46
2018-06-15T22:27:20.975Z,80.89
2018-06-15T22:32:00.793Z,79.63
2018-06-15T22:36:39.997Z,80.69
2018-06-15T22:41:18.574Z,81.35
2018-06-15T22:45:57.072Z,81.48
2018-06-15T22:50:35.580Z,81.36
2018-06-15T22:55:14.722Z,80.54
2018-06-15T22:59:53.239Z,81.06
2018-06-15T23:04:35.263Z,80.40
2018-06-15T23:09:13.759Z,80.28
2018-06-15T23:13:52.516Z,78.98
2018-06-15T23:18:31.006Z,79.64
2018-06-15T23:23:09.730Z,79.59
2018-06-15T23:27:48.354Z,79.90
2018-06-15T23:32:27.065Z,78.67
2018-06-15T23:37:05.530Z,79.61
2018-06-15T23:41:47.442Z,80.21
2018-06-15T23:46:26.066Z,79.67
2018-06-15T23:51:07.625Z,80.29
2018-06-15T23:55:46.132Z,79.49
